Observations for SAINT-BRIEUC ARMOR, France (LFRT)

LFRT 252100Z AUTO 31003KT 9999 OVC013 12/12 Q1022   
LFRT 252030Z AUTO 31005KT 9999 OVC013 13/12 Q1022   
LFRT 252000Z AUTO 31005KT 9999 FEW008 OVC014 13/12 Q1022
LFRT 251930Z AUTO 31004KT 9999 BKN013 12/11 Q1022   
LFRT 251900Z AUTO 31004KT CAVOK 12/11 Q1022 
LFRT 251830Z AUTO 33006KT 9999 FEW015 13/12 Q1022   
LFRT 251800Z AUTO 32005KT 9999 BKN013 15/12 Q1022   
LFRT 251730Z AUTO 33009KT 9999 BKN012 OVC027 15/13 Q1022
LFRT 251700Z AUTO 33008KT 9999 BKN013 BKN018 OVC030 15/13 Q1021 
LFRT 251630Z AUTO 33009KT 9999 OVC014 16/13 Q1021   
LFRT 251600Z AUTO 33009KT 9999 BKN013 OVC028 16/14 Q1021
LFRT 251530Z AUTO 34009KT 9999 BKN014 BKN021 BKN028 17/14 Q1021 
LFRT 251500Z AUTO 34008KT 310V020 9999 BKN013 BKN018 BKN026 17/14 Q1020 
LFRT 251430Z AUTO 34008KT 310V020 9999 BKN013 BKN024 OVC034 17/14 Q1020 
LFRT 251400Z AUTO 33008KT 9999 BKN014 BKN019 OVC025 17/15 Q1020 
LFRT 251330Z AUTO 33009KT 310V020 9999 BKN014 BKN020 OVC064 17/15 Q1020 
LFRT 251300Z AUTO 32008KT 9999 SCT008 BKN012 BKN027 17/15 Q1020 
LFRT 251230Z AUTO 32010KT 9999 BKN009 OVC016 16/14 Q1020
LFRT 251200Z AUTO 32009KT 9999 BKN010 OVC015 16/15 Q1020
LFRT 251130Z AUTO 33009KT 310V010 9999 BKN008 OVC012 16/14 Q1020
LFRT 251100Z AUTO 34008KT 320V020 9999 OVC007 16/15 Q1020   
LFRT 251030Z AUTO 33009KT 9999 OVC006 15/14 Q1019   
LFRT 251000Z AUTO 33008KT 9999 OVC007 15/15 Q1019   
LFRT 250930Z AUTO 33010KT 9999 OVC007 15/14 Q1020   
LFRT 250900Z AUTO 33010KT 9999 OVC006 15/14 Q1019   
LFRT 250830Z AUTO 33010KT 8000 OVC005 15/14 Q1019   
LFRT 250800Z AUTO 32009KT 8000 OVC005 15/14 Q1019   
LFRT 250730Z AUTO 32008KT 7000 BKN005 OVC028 14/14 Q1018
LFRT 250700Z AUTO 32008KT 6000 OVC004 14/14 Q1018   
LFRT 250630Z AUTO 33006KT 5000 BR OVC003 14/14 Q1018
LFRT 250600Z AUTO 31007KT 4400 BR OVC002 14/14 Q1018